sensor_id;sensor_type;location;lat;lon;timestamp;P1;durP1;ratioP1;P2;durP2;ratioP2
56401;SDS011;42299;35.160;26.100;2023-04-15T00:00:42;19.85;;;6.25;;
56401;SDS011;42299;35.160;26.100;2023-04-15T00:02:14;20.73;;;6.93;;
56401;SDS011;42299;35.160;26.100;2023-04-15T00:03:37;22.67;;;6.30;;
56401;SDS011;42299;35.160;26.100;2023-04-15T00:05:00;20.65;;;6.10;;
56401;SDS011;42299;35.160;26.100;2023-04-15T00:06:22;24.10;;;7.75;;
56401;SDS011;42299;35.160;26.100;2023-04-15T00:07:45;19.67;;;5.97;;
56401;SDS011;42299;35.160;26.100;2023-04-15T00:09:07;21.85;;;7.97;;
56401;SDS011;42299;35.160;26.100;2023-04-15T00:10:29;15.80;;;6.18;;
56401;SDS011;42299;35.160;26.100;2023-04-15T00:11:50;21.75;;;6.97;;
56401;SDS011;42299;35.160;26.100;2023-04-15T00:13:13;24.33;;;6.80;;
56401;SDS011;42299;35.160;26.100;2023-04-15T00:14:35;23.88;;;8.15;;
56401;SDS011;42299;35.160;26.100;2023-04-15T00:15:57;20.95;;;6.75;;
56401;SDS011;42299;35.160;26.100;2023-04-15T00:17:21;24.27;;;7.95;;
56401;SDS011;42299;35.160;26.100;2023-04-15T00:18:42;27.80;;;7.22;;
56401;SDS011;42299;35.160;26.100;2023-04-15T00:20:05;22.55;;;5.82;;
56401;SDS011;42299;35.160;26.100;2023-04-15T00:21:26;19.70;;;6.72;;
56401;SDS011;42299;35.160;26.100;2023-04-15T00:22:49;21.30;;;6.85;;
56401;SDS011;42299;35.160;26.100;2023-04-15T00:24:12;18.73;;;7.03;;
56401;SDS011;42299;35.160;26.100;2023-04-15T00:25:34;18.48;;;8.00;;
56401;SDS011;42299;35.160;26.100;2023-04-15T00:26:56;21.73;;;6.45;;
56401;SDS011;42299;35.160;26.100;2023-04-15T00:28:18;17.33;;;5.63;;
56401;SDS011;42299;35.160;26.100;2023-04-15T00:29:41;18.85;;;6.82;;
56401;SDS011;42299;35.160;26.100;2023-04-15T00:31:02;20.58;;;6.72;;
56401;SDS011;42299;35.160;26.100;2023-04-15T00:32:26;22.13;;;6.68;;
56401;SDS011;42299;35.160;26.100;2023-04-15T00:33:49;24.08;;;7.13;;
56401;SDS011;42299;35.160;26.100;2023-04-15T00:35:11;28.70;;;7.75;;
56401;SDS011;42299;35.160;26.100;2023-04-15T00:36:34;23.85;;;7.15;;
56401;SDS011;42299;35.160;26.100;2023-04-15T00:37:56;22.45;;;6.88;;
56401;SDS011;42299;35.160;26.100;2023-04-15T00:39:18;26.88;;;7.57;;
56401;SDS011;42299;35.160;26.100;2023-04-15T00:40:42;22.92;;;7.00;;
56401;SDS011;42299;35.160;26.100;2023-04-15T00:42:04;25.20;;;8.10;;
56401;SDS011;42299;35.160;26.100;2023-04-15T00:43:26;25.40;;;7.90;;
56401;SDS011;42299;35.160;26.100;2023-04-15T00:44:49;20.60;;;7.72;;
56401;SDS011;42299;35.160;26.100;2023-04-15T00:46:12;23.05;;;7.40;;
56401;SDS011;42299;35.160;26.100;2023-04-15T00:47:37;22.80;;;7.28;;
56401;SDS011;42299;35.160;26.100;2023-04-15T00:49:02;20.50;;;6.97;;
56401;SDS011;42299;35.160;26.100;2023-04-15T00:50:24;23.98;;;6.50;;
56401;SDS011;42299;35.160;26.100;2023-04-15T00:51:47;23.05;;;7.70;;
56401;SDS011;42299;35.160;26.100;2023-04-15T00:53:08;20.13;;;6.18;;
56401;SDS011;42299;35.160;26.100;2023-04-15T00:54:31;18.85;;;6.50;;
56401;SDS011;42299;35.160;26.100;2023-04-15T00:55:53;21.77;;;8.00;;
56401;SDS011;42299;35.160;26.100;2023-04-15T00:57:15;22.40;;;7.65;;
56401;SDS011;42299;35.160;26.100;2023-04-15T00:58:38;17.65;;;6.30;;
56401;SDS011;42299;35.160;26.100;2023-04-15T01:00:01;22.17;;;7.07;;
56401;SDS011;42299;35.160;26.100;2023-04-15T01:01:27;23.67;;;7.95;;
56401;SDS011;42299;35.160;26.100;2023-04-15T01:02:51;22.73;;;6.70;;
56401;SDS011;42299;35.160;26.100;2023-04-15T01:04:13;24.83;;;8.05;;
56401;SDS011;42299;35.160;26.100;2023-04-15T01:05:36;20.75;;;6.03;;
56401;SDS011;42299;35.160;26.100;2023-04-15T01:08:20;22.15;;;7.15;;
56401;SDS011;42299;35.160;26.100;2023-04-15T01:09:41;20.75;;;6.50;;
56401;SDS011;42299;35.160;26.100;2023-04-15T01:11:05;21.50;;;7.15;;
56401;SDS011;42299;35.160;26.100;2023-04-15T01:12:28;18.45;;;6.40;;
56401;SDS011;42299;35.160;26.100;2023-04-15T01:13:53;25.10;;;7.88;;
56401;SDS011;42299;35.160;26.100;2023-04-15T01:15:16;21.65;;;7.43;;
56401;SDS011;42299;35.160;26.100;2023-04-15T01:16:42;22.23;;;7.18;;
56401;SDS011;42299;35.160;26.100;2023-04-15T01:18:06;29.20;;;8.55;;
56401;SDS011;42299;35.160;26.100;2023-04-15T01:19:31;21.90;;;6.20;;
56401;SDS011;42299;35.160;26.100;2023-04-15T01:20:54;23.77;;;7.10;;
56401;SDS011;42299;35.160;26.100;2023-04-15T01:22:17;21.25;;;7.05;;
56401;SDS011;42299;35.160;26.100;2023-04-15T01:23:40;26.05;;;8.63;;
56401;SDS011;42299;35.160;26.100;2023-04-15T01:25:08;19.63;;;6.15;;
56401;SDS011;42299;35.160;26.100;2023-04-15T01:26:33;26.30;;;8.25;;
56401;SDS011;42299;35.160;26.100;2023-04-15T01:27:56;24.55;;;7.78;;
56401;SDS011;42299;35.160;26.100;2023-04-15T01:29:17;19.75;;;6.28;;
56401;SDS011;42299;35.160;26.100;2023-04-15T01:30:40;25.15;;;6.53;;
56401;SDS011;42299;35.160;26.100;2023-04-15T01:32:02;18.90;;;7.60;;
56401;SDS011;42299;35.160;26.100;2023-04-15T01:33:25;22.85;;;7.43;;
56401;SDS011;42299;35.160;26.100;2023-04-15T01:34:47;27.30;;;7.97;;
56401;SDS011;42299;35.160;26.100;2023-04-15T01:36:10;24.92;;;7.95;;
56401;SDS011;42299;35.160;26.100;2023-04-15T01:37:31;27.42;;;8.63;;
56401;SDS011;42299;35.160;26.100;2023-04-15T01:38:55;27.55;;;8.38;;
56401;SDS011;42299;35.160;26.100;2023-04-15T01:40:16;28.80;;;9.27;;
56401;SDS011;42299;35.160;26.100;2023-04-15T01:41:41;26.48;;;7.95;;
56401;SDS011;42299;35.160;26.100;2023-04-15T01:43:03;27.38;;;8.27;;
56401;SDS011;42299;35.160;26.100;2023-04-15T01:44:24;19.67;;;6.15;;
56401;SDS011;42299;35.160;26.100;2023-04-15T01:45:47;24.27;;;8.82;;
56401;SDS011;42299;35.160;26.100;2023-04-15T01:47:08;27.80;;;8.63;;
56401;SDS011;42299;35.160;26.100;2023-04-15T01:48:31;20.70;;;7.88;;
56401;SDS011;42299;35.160;26.100;2023-04-15T01:49:53;26.08;;;8.30;;
56401;SDS011;42299;35.160;26.100;2023-04-15T01:51:15;19.90;;;6.93;;
56401;SDS011;42299;35.160;26.100;2023-04-15T01:52:38;25.83;;;8.55;;
56401;SDS011;42299;35.160;26.100;2023-04-15T01:53:59;21.42;;;8.60;;
56401;SDS011;42299;35.160;26.100;2023-04-15T01:55:23;23.15;;;8.07;;
56401;SDS011;42299;35.160;26.100;2023-04-15T01:56:46;27.15;;;8.50;;
56401;SDS011;42299;35.160;26.100;2023-04-15T01:58:09;21.75;;;7.13;;
56401;SDS011;42299;35.160;26.100;2023-04-15T01:59:30;22.75;;;7.03;;
56401;SDS011;42299;35.160;26.100;2023-04-15T02:00:52;17.63;;;6.88;;
56401;SDS011;42299;35.160;26.100;2023-04-15T02:02:13;25.60;;;8.82;;
56401;SDS011;42299;35.160;26.100;2023-04-15T02:03:36;26.13;;;8.48;;
56401;SDS011;42299;35.160;26.100;2023-04-15T02:06:21;23.77;;;8.15;;
56401;SDS011;42299;35.160;26.100;2023-04-15T02:07:43;23.67;;;8.02;;
56401;SDS011;42299;35.160;26.100;2023-04-15T02:09:05;26.67;;;7.05;;
56401;SDS011;42299;35.160;26.100;2023-04-15T02:10:27;21.55;;;8.50;;
56401;SDS011;42299;35.160;26.100;2023-04-15T02:11:51;25.15;;;6.97;;
56401;SDS011;42299;35.160;26.100;2023-04-15T02:13:14;29.92;;;6.90;;
56401;SDS011;42299;35.160;26.100;2023-04-15T02:14:36;23.20;;;7.45;;
56401;SDS011;42299;35.160;26.100;2023-04-15T02:15:57;19.73;;;6.28;;
56401;SDS011;42299;35.160;26.100;2023-04-15T02:17:20;23.50;;;6.63;;
56401;SDS011;42299;35.160;26.100;2023-04-15T02:18:42;29.45;;;7.68;;
56401;SDS011;42299;35.160;26.100;2023-04-15T02:20:05;19.98;;;6.55;;
56401;SDS011;42299;35.160;26.100;2023-04-15T02:21:28;28.52;;;9.63;;
56401;SDS011;42299;35.160;26.100;2023-04-15T02:22:51;21.75;;;8.27;;
56401;SDS011;42299;35.160;26.100;2023-04-15T02:24:12;25.20;;;6.90;;
56401;SDS011;42299;35.160;26.100;2023-04-15T02:25:35;29.08;;;7.82;;
56401;SDS011;42299;35.160;26.100;2023-04-15T02:27:00;21.25;;;7.15;;
56401;SDS011;42299;35.160;26.100;2023-04-15T02:28:23;22.95;;;7.75;;
56401;SDS011;42299;35.160;26.100;2023-04-15T02:29:46;27.42;;;7.13;;
56401;SDS011;42299;35.160;26.100;2023-04-15T02:31:10;24.73;;;8.73;;
56401;SDS011;42299;35.160;26.100;2023-04-15T02:32:32;27.17;;;7.90;;
56401;SDS011;42299;35.160;26.100;2023-04-15T02:33:55;22.38;;;6.95;;
56401;SDS011;42299;35.160;26.100;2023-04-15T02:35:17;24.35;;;6.93;;
56401;SDS011;42299;35.160;26.100;2023-04-15T02:36:39;23.13;;;6.47;;
56401;SDS011;42299;35.160;26.100;2023-04-15T02:38:01;19.77;;;7.10;;
56401;SDS011;42299;35.160;26.100;2023-04-15T02:39:24;21.30;;;7.75;;
56401;SDS011;42299;35.160;26.100;2023-04-15T02:40:47;24.25;;;7.70;;
56401;SDS011;42299;35.160;26.100;2023-04-15T02:43:33;22.58;;;6.45;;
56401;SDS011;42299;35.160;26.100;2023-04-15T02:44:56;24.85;;;5.93;;
56401;SDS011;42299;35.160;26.100;2023-04-15T02:46:23;22.20;;;7.63;;
56401;SDS011;42299;35.160;26.100;2023-04-15T02:47:47;25.38;;;7.10;;
56401;SDS011;42299;35.160;26.100;2023-04-15T02:49:10;17.70;;;5.78;;
56401;SDS011;42299;35.160;26.100;2023-04-15T02:50:31;22.60;;;8.57;;
56401;SDS011;42299;35.160;26.100;2023-04-15T02:51:53;25.63;;;8.07;;
56401;SDS011;42299;35.160;26.100;2023-04-15T02:53:18;21.20;;;6.63;;
56401;SDS011;42299;35.160;26.100;2023-04-15T02:54:40;27.17;;;9.15;;
56401;SDS011;42299;35.160;26.100;2023-04-15T02:56:01;23.50;;;8.32;;
56401;SDS011;42299;35.160;26.100;2023-04-15T02:57:27;23.98;;;7.93;;
56401;SDS011;42299;35.160;26.100;2023-04-15T02:58:52;19.30;;;7.03;;
56401;SDS011;42299;35.160;26.100;2023-04-15T03:00:16;24.08;;;8.05;;
56401;SDS011;42299;35.160;26.100;2023-04-15T03:01:41;24.77;;;7.88;;
56401;SDS011;42299;35.160;26.100;2023-04-15T03:03:02;18.58;;;6.85;;
56401;SDS011;42299;35.160;26.100;2023-04-15T03:04:25;29.08;;;8.77;;
56401;SDS011;42299;35.160;26.100;2023-04-15T03:05:49;24.50;;;9.25;;
56401;SDS011;42299;35.160;26.100;2023-04-15T03:07:11;21.73;;;8.65;;
56401;SDS011;42299;35.160;26.100;2023-04-15T03:08:34;24.05;;;8.75;;
56401;SDS011;42299;35.160;26.100;2023-04-15T03:09:56;25.83;;;8.85;;
56401;SDS011;42299;35.160;26.100;2023-04-15T03:11:19;24.52;;;9.70;;
56401;SDS011;42299;35.160;26.100;2023-04-15T03:12:43;22.80;;;9.88;;
56401;SDS011;42299;35.160;26.100;2023-04-15T03:14:09;27.92;;;9.85;;
56401;SDS011;42299;35.160;26.100;2023-04-15T03:15:36;23.73;;;9.30;;
56401;SDS011;42299;35.160;26.100;2023-04-15T03:16:58;27.77;;;10.80;;
56401;SDS011;42299;35.160;26.100;2023-04-15T03:18:19;22.58;;;9.65;;
56401;SDS011;42299;35.160;26.100;2023-04-15T03:19:43;23.10;;;10.05;;
56401;SDS011;42299;35.160;26.100;2023-04-15T03:21:05;29.25;;;11.50;;
56401;SDS011;42299;35.160;26.100;2023-04-15T03:22:30;32.63;;;12.15;;
56401;SDS011;42299;35.160;26.100;2023-04-15T03:23:51;24.08;;;12.02;;
56401;SDS011;42299;35.160;26.100;2023-04-15T03:25:14;25.45;;;10.73;;
56401;SDS011;42299;35.160;26.100;2023-04-15T03:26:37;21.48;;;9.80;;
56401;SDS011;42299;35.160;26.100;2023-04-15T03:28:06;25.60;;;12.05;;
56401;SDS011;42299;35.160;26.100;2023-04-15T03:29:29;24.98;;;10.77;;
56401;SDS011;42299;35.160;26.100;2023-04-15T03:30:52;29.48;;;11.77;;
56401;SDS011;42299;35.160;26.100;2023-04-15T03:32:13;28.75;;;11.60;;
56401;SDS011;42299;35.160;26.100;2023-04-15T03:33:36;25.40;;;11.77;;
56401;SDS011;42299;35.160;26.100;2023-04-15T03:34:57;28.45;;;12.80;;
56401;SDS011;42299;35.160;26.100;2023-04-15T03:36:19;31.73;;;12.13;;
56401;SDS011;42299;35.160;26.100;2023-04-15T03:37:42;29.92;;;12.68;;
56401;SDS011;42299;35.160;26.100;2023-04-15T03:39:03;29.10;;;12.77;;
56401;SDS011;42299;35.160;26.100;2023-04-15T03:40:25;34.63;;;13.02;;
56401;SDS011;42299;35.160;26.100;2023-04-15T03:41:47;24.88;;;13.65;;
56401;SDS011;42299;35.160;26.100;2023-04-15T03:43:11;30.90;;;14.02;;
56401;SDS011;42299;35.160;26.100;2023-04-15T03:44:33;28.85;;;11.48;;
56401;SDS011;42299;35.160;26.100;2023-04-15T03:45:56;30.35;;;13.45;;
56401;SDS011;42299;35.160;26.100;2023-04-15T03:47:17;31.52;;;13.23;;
56401;SDS011;42299;35.160;26.100;2023-04-15T03:48:40;24.70;;;12.57;;
56401;SDS011;42299;35.160;26.100;2023-04-15T03:50:03;20.17;;;12.90;;
56401;SDS011;42299;35.160;26.100;2023-04-15T03:51:25;31.35;;;14.27;;
56401;SDS011;42299;35.160;26.100;2023-04-15T03:52:47;29.80;;;12.65;;
56401;SDS011;42299;35.160;26.100;2023-04-15T03:54:10;29.08;;;14.82;;
56401;SDS011;42299;35.160;26.100;2023-04-15T03:55:34;30.00;;;15.63;;
56401;SDS011;42299;35.160;26.100;2023-04-15T03:58:20;28.58;;;16.17;;
56401;SDS011;42299;35.160;26.100;2023-04-15T03:59:42;29.40;;;13.20;;
56401;SDS011;42299;35.160;26.100;2023-04-15T04:01:04;23.17;;;13.50;;
56401;SDS011;42299;35.160;26.100;2023-04-15T04:02:26;27.27;;;14.68;;
56401;SDS011;42299;35.160;26.100;2023-04-15T04:03:49;36.55;;;18.52;;
56401;SDS011;42299;35.160;26.100;2023-04-15T04:05:10;28.38;;;15.40;;
56401;SDS011;42299;35.160;26.100;2023-04-15T04:06:32;29.45;;;16.27;;
56401;SDS011;42299;35.160;26.100;2023-04-15T04:07:55;37.25;;;17.38;;
56401;SDS011;42299;35.160;26.100;2023-04-15T04:09:17;35.30;;;16.67;;
56401;SDS011;42299;35.160;26.100;2023-04-15T04:10:39;33.00;;;15.75;;
56401;SDS011;42299;35.160;26.100;2023-04-15T04:12:01;30.45;;;16.67;;
56401;SDS011;42299;35.160;26.100;2023-04-15T04:13:25;34.42;;;17.50;;
56401;SDS011;42299;35.160;26.100;2023-04-15T04:14:47;32.45;;;16.63;;
56401;SDS011;42299;35.160;26.100;2023-04-15T04:16:08;32.70;;;17.70;;
56401;SDS011;42299;35.160;26.100;2023-04-15T04:17:31;35.20;;;16.65;;
56401;SDS011;42299;35.160;26.100;2023-04-15T04:18:53;36.88;;;16.88;;
56401;SDS011;42299;35.160;26.100;2023-04-15T04:20:15;37.08;;;15.55;;
56401;SDS011;42299;35.160;26.100;2023-04-15T04:21:37;31.48;;;16.88;;
56401;SDS011;42299;35.160;26.100;2023-04-15T04:23:00;33.63;;;17.13;;
56401;SDS011;42299;35.160;26.100;2023-04-15T04:24:21;31.35;;;15.27;;
56401;SDS011;42299;35.160;26.100;2023-04-15T04:25:43;30.10;;;17.02;;
56401;SDS011;42299;35.160;26.100;2023-04-15T04:27:05;34.13;;;16.23;;
56401;SDS011;42299;35.160;26.100;2023-04-15T04:28:29;26.80;;;17.13;;
56401;SDS011;42299;35.160;26.100;2023-04-15T04:29:51;36.80;;;16.98;;
56401;SDS011;42299;35.160;26.100;2023-04-15T04:31:12;33.75;;;16.02;;
56401;SDS011;42299;35.160;26.100;2023-04-15T04:32:35;28.08;;;14.80;;
56401;SDS011;42299;35.160;26.100;2023-04-15T04:33:58;27.38;;;15.60;;
56401;SDS011;42299;35.160;26.100;2023-04-15T04:35:20;28.60;;;18.52;;
56401;SDS011;42299;35.160;26.100;2023-04-15T04:36:43;27.48;;;14.68;;
56401;SDS011;42299;35.160;26.100;2023-04-15T04:38:06;27.52;;;16.20;;
56401;SDS011;42299;35.160;26.100;2023-04-15T04:39:27;26.13;;;14.85;;
56401;SDS011;42299;35.160;26.100;2023-04-15T04:40:50;29.40;;;17.33;;
56401;SDS011;42299;35.160;26.100;2023-04-15T04:42:11;29.15;;;14.77;;
56401;SDS011;42299;35.160;26.100;2023-04-15T04:43:35;29.90;;;17.02;;
56401;SDS011;42299;35.160;26.100;2023-04-15T04:44:56;25.35;;;16.38;;
56401;SDS011;42299;35.160;26.100;2023-04-15T04:46:18;31.23;;;17.33;;
56401;SDS011;42299;35.160;26.100;2023-04-15T04:47:41;30.85;;;17.58;;
56401;SDS011;42299;35.160;26.100;2023-04-15T04:49:02;31.90;;;18.65;;
56401;SDS011;42299;35.160;26.100;2023-04-15T04:50:24;32.95;;;18.80;;
56401;SDS011;42299;35.160;26.100;2023-04-15T04:51:46;28.30;;;16.92;;
56401;SDS011;42299;35.160;26.100;2023-04-15T04:53:09;37.92;;;20.00;;
56401;SDS011;42299;35.160;26.100;2023-04-15T04:54:31;33.53;;;20.00;;
56401;SDS011;42299;35.160;26.100;2023-04-15T04:55:53;44.00;;;21.17;;
56401;SDS011;42299;35.160;26.100;2023-04-15T04:57:15;37.72;;;22.15;;
56401;SDS011;42299;35.160;26.100;2023-04-15T04:58:39;35.42;;;21.35;;
56401;SDS011;42299;35.160;26.100;2023-04-15T05:00:02;29.45;;;19.30;;
56401;SDS011;42299;35.160;26.100;2023-04-15T05:01:25;33.80;;;20.70;;
56401;SDS011;42299;35.160;26.100;2023-04-15T05:02:47;37.30;;;21.40;;
56401;SDS011;42299;35.160;26.100;2023-04-15T05:04:08;34.65;;;21.20;;
56401;SDS011;42299;35.160;26.100;2023-04-15T05:05:31;37.13;;;21.02;;
56401;SDS011;42299;35.160;26.100;2023-04-15T05:06:52;31.30;;;19.27;;
56401;SDS011;42299;35.160;26.100;2023-04-15T05:08:15;28.15;;;16.83;;
56401;SDS011;42299;35.160;26.100;2023-04-15T05:09:36;29.27;;;18.45;;
56401;SDS011;42299;35.160;26.100;2023-04-15T05:10:58;26.58;;;15.80;;
56401;SDS011;42299;35.160;26.100;2023-04-15T05:12:21;26.67;;;14.95;;
56401;SDS011;42299;35.160;26.100;2023-04-15T05:13:44;28.80;;;17.58;;
56401;SDS011;42299;35.160;26.100;2023-04-15T05:15:06;30.35;;;17.27;;
56401;SDS011;42299;35.160;26.100;2023-04-15T05:16:28;36.30;;;20.85;;
56401;SDS011;42299;35.160;26.100;2023-04-15T05:17:51;42.13;;;23.48;;
56401;SDS011;42299;35.160;26.100;2023-04-15T05:19:13;31.13;;;17.73;;
56401;SDS011;42299;35.160;26.100;2023-04-15T05:20:35;31.15;;;17.17;;
56401;SDS011;42299;35.160;26.100;2023-04-15T05:21:58;28.30;;;18.20;;
56401;SDS011;42299;35.160;26.100;2023-04-15T05:23:20;32.45;;;17.77;;
56401;SDS011;42299;35.160;26.100;2023-04-15T05:24:43;37.30;;;17.73;;
56401;SDS011;42299;35.160;26.100;2023-04-15T05:26:06;35.15;;;19.30;;
56401;SDS011;42299;35.160;26.100;2023-04-15T05:27:28;30.15;;;18.50;;
56401;SDS011;42299;35.160;26.100;2023-04-15T05:28:51;31.10;;;18.25;;
56401;SDS011;42299;35.160;26.100;2023-04-15T05:30:14;28.45;;;15.55;;
56401;SDS011;42299;35.160;26.100;2023-04-15T05:31:36;28.77;;;17.77;;
56401;SDS011;42299;35.160;26.100;2023-04-15T05:32:59;27.60;;;15.80;;
56401;SDS011;42299;35.160;26.100;2023-04-15T05:34:21;30.92;;;17.70;;
56401;SDS011;42299;35.160;26.100;2023-04-15T05:35:44;35.88;;;19.55;;
56401;SDS011;42299;35.160;26.100;2023-04-15T05:37:06;35.70;;;20.35;;
56401;SDS011;42299;35.160;26.100;2023-04-15T05:38:29;30.25;;;18.27;;
56401;SDS011;42299;35.160;26.100;2023-04-15T05:39:51;37.92;;;18.60;;
56401;SDS011;42299;35.160;26.100;2023-04-15T05:41:14;32.38;;;16.85;;
56401;SDS011;42299;35.160;26.100;2023-04-15T05:43:59;31.77;;;19.23;;
56401;SDS011;42299;35.160;26.100;2023-04-15T05:45:21;29.70;;;17.33;;
56401;SDS011;42299;35.160;26.100;2023-04-15T05:46:43;31.25;;;19.83;;
56401;SDS011;42299;35.160;26.100;2023-04-15T05:48:04;30.17;;;18.38;;
56401;SDS011;42299;35.160;26.100;2023-04-15T05:49:27;34.67;;;17.65;;
56401;SDS011;42299;35.160;26.100;2023-04-15T05:50:50;38.50;;;19.23;;
56401;SDS011;42299;35.160;26.100;2023-04-15T05:52:13;30.35;;;17.67;;
56401;SDS011;42299;35.160;26.100;2023-04-15T05:53:34;32.17;;;16.58;;
56401;SDS011;42299;35.160;26.100;2023-04-15T05:54:56;27.92;;;17.42;;
56401;SDS011;42299;35.160;26.100;2023-04-15T05:56:19;27.17;;;15.82;;
56401;SDS011;42299;35.160;26.100;2023-04-15T05:57:41;28.92;;;14.20;;
56401;SDS011;42299;35.160;26.100;2023-04-15T05:59:04;31.45;;;15.13;;
56401;SDS011;42299;35.160;26.100;2023-04-15T06:00:27;28.98;;;16.23;;
56401;SDS011;42299;35.160;26.100;2023-04-15T06:01:48;28.88;;;14.70;;
56401;SDS011;42299;35.160;26.100;2023-04-15T06:03:11;31.67;;;14.90;;
56401;SDS011;42299;35.160;26.100;2023-04-15T06:04:33;28.10;;;14.63;;
56401;SDS011;42299;35.160;26.100;2023-04-15T06:05:56;26.67;;;15.70;;
56401;SDS011;42299;35.160;26.100;2023-04-15T06:07:20;28.27;;;14.13;;
56401;SDS011;42299;35.160;26.100;2023-04-15T06:08:42;27.23;;;14.98;;
56401;SDS011;42299;35.160;26.100;2023-04-15T06:10:04;29.30;;;14.20;;
56401;SDS011;42299;35.160;26.100;2023-04-15T06:11:27;27.27;;;13.52;;
56401;SDS011;42299;35.160;26.100;2023-04-15T06:12:49;27.60;;;11.50;;
56401;SDS011;42299;35.160;26.100;2023-04-15T06:14:15;25.77;;;11.75;;
56401;SDS011;42299;35.160;26.100;2023-04-15T06:15:37;26.95;;;11.50;;
56401;SDS011;42299;35.160;26.100;2023-04-15T06:17:00;29.77;;;13.20;;
56401;SDS011;42299;35.160;26.100;2023-04-15T06:18:23;26.33;;;12.57;;
56401;SDS011;42299;35.160;26.100;2023-04-15T06:19:45;23.85;;;10.63;;
56401;SDS011;42299;35.160;26.100;2023-04-15T06:21:09;28.58;;;12.48;;
56401;SDS011;42299;35.160;26.100;2023-04-15T06:22:32;27.13;;;12.77;;
56401;SDS011;42299;35.160;26.100;2023-04-15T06:23:55;23.65;;;12.30;;
56401;SDS011;42299;35.160;26.100;2023-04-15T06:25:17;22.58;;;11.23;;
56401;SDS011;42299;35.160;26.100;2023-04-15T06:26:39;24.20;;;11.63;;
56401;SDS011;42299;35.160;26.100;2023-04-15T06:28:02;29.15;;;11.90;;
56401;SDS011;42299;35.160;26.100;2023-04-15T06:29:26;31.17;;;13.75;;
56401;SDS011;42299;35.160;26.100;2023-04-15T06:30:49;24.60;;;10.50;;
56401;SDS011;42299;35.160;26.100;2023-04-15T06:32:12;26.92;;;10.23;;
56401;SDS011;42299;35.160;26.100;2023-04-15T06:33:34;22.80;;;12.00;;
56401;SDS011;42299;35.160;26.100;2023-04-15T06:34:57;27.65;;;11.75;;
56401;SDS011;42299;35.160;26.100;2023-04-15T06:36:19;26.65;;;12.38;;
56401;SDS011;42299;35.160;26.100;2023-04-15T06:37:42;28.38;;;10.98;;
56401;SDS011;42299;35.160;26.100;2023-04-15T06:39:03;19.95;;;10.70;;
56401;SDS011;42299;35.160;26.100;2023-04-15T06:40:26;25.25;;;11.05;;
56401;SDS011;42299;35.160;26.100;2023-04-15T06:41:48;22.83;;;11.00;;
56401;SDS011;42299;35.160;26.100;2023-04-15T06:43:14;24.05;;;8.85;;
56401;SDS011;42299;35.160;26.100;2023-04-15T06:44:38;23.23;;;8.93;;
56401;SDS011;42299;35.160;26.100;2023-04-15T06:46:01;24.00;;;9.82;;
56401;SDS011;42299;35.160;26.100;2023-04-15T06:47:22;18.80;;;8.25;;
56401;SDS011;42299;35.160;26.100;2023-04-15T06:48:45;27.20;;;10.90;;
56401;SDS011;42299;35.160;26.100;2023-04-15T06:50:08;25.75;;;12.35;;
56401;SDS011;42299;35.160;26.100;2023-04-15T06:51:30;22.55;;;8.90;;
56401;SDS011;42299;35.160;26.100;2023-04-15T06:52:53;23.38;;;9.60;;
56401;SDS011;42299;35.160;26.100;2023-04-15T06:54:16;27.13;;;10.45;;
56401;SDS011;42299;35.160;26.100;2023-04-15T06:55:39;17.15;;;8.60;;
56401;SDS011;42299;35.160;26.100;2023-04-15T06:57:01;22.70;;;8.50;;
56401;SDS011;42299;35.160;26.100;2023-04-15T06:58:23;20.52;;;7.60;;
56401;SDS011;42299;35.160;26.100;2023-04-15T06:59:47;19.23;;;7.75;;
56401;SDS011;42299;35.160;26.100;2023-04-15T07:01:10;21.10;;;8.77;;
56401;SDS011;42299;35.160;26.100;2023-04-15T07:02:33;19.45;;;8.15;;
56401;SDS011;42299;35.160;26.100;2023-04-15T07:03:54;19.05;;;7.28;;
56401;SDS011;42299;35.160;26.100;2023-04-15T07:05:17;17.27;;;6.57;;
56401;SDS011;42299;35.160;26.100;2023-04-15T07:06:40;22.77;;;9.10;;
56401;SDS011;42299;35.160;26.100;2023-04-15T07:08:02;19.98;;;7.38;;
56401;SDS011;42299;35.160;26.100;2023-04-15T07:09:26;15.55;;;6.25;;
56401;SDS011;42299;35.160;26.100;2023-04-15T07:10:48;20.40;;;6.93;;
56401;SDS011;42299;35.160;26.100;2023-04-15T07:12:11;19.73;;;7.57;;
56401;SDS011;42299;35.160;26.100;2023-04-15T07:13:33;22.67;;;8.52;;
56401;SDS011;42299;35.160;26.100;2023-04-15T07:14:57;20.38;;;6.95;;
56401;SDS011;42299;35.160;26.100;2023-04-15T07:16:20;20.55;;;6.60;;
56401;SDS011;42299;35.160;26.100;2023-04-15T07:17:42;21.02;;;6.57;;
56401;SDS011;42299;35.160;26.100;2023-04-15T07:19:05;21.83;;;6.57;;
56401;SDS011;42299;35.160;26.100;2023-04-15T07:20:27;16.92;;;6.25;;
56401;SDS011;42299;35.160;26.100;2023-04-15T07:21:50;21.95;;;7.18;;
56401;SDS011;42299;35.160;26.100;2023-04-15T07:23:12;13.52;;;6.85;;
56401;SDS011;42299;35.160;26.100;2023-04-15T07:24:35;19.83;;;7.18;;
56401;SDS011;42299;35.160;26.100;2023-04-15T07:25:58;21.88;;;7.78;;
56401;SDS011;42299;35.160;26.100;2023-04-15T07:27:20;18.55;;;6.78;;
56401;SDS011;42299;35.160;26.100;2023-04-15T07:28:43;20.52;;;7.00;;
56401;SDS011;42299;35.160;26.100;2023-04-15T07:30:09;15.55;;;6.22;;
56401;SDS011;42299;35.160;26.100;2023-04-15T07:31:32;16.33;;;6.78;;
56401;SDS011;42299;35.160;26.100;2023-04-15T07:32:54;18.50;;;6.47;;
56401;SDS011;42299;35.160;26.100;2023-04-15T07:34:15;16.27;;;5.82;;
56401;SDS011;42299;35.160;26.100;2023-04-15T07:35:38;19.15;;;6.43;;
56401;SDS011;42299;35.160;26.100;2023-04-15T07:37:01;19.58;;;6.88;;
56401;SDS011;42299;35.160;26.100;2023-04-15T07:38:24;18.88;;;6.53;;
56401;SDS011;42299;35.160;26.100;2023-04-15T07:39:46;20.05;;;6.22;;
56401;SDS011;42299;35.160;26.100;2023-04-15T07:41:09;18.95;;;6.22;;
56401;SDS011;42299;35.160;26.100;2023-04-15T07:42:31;20.08;;;5.20;;
56401;SDS011;42299;35.160;26.100;2023-04-15T07:43:54;24.50;;;6.63;;
56401;SDS011;42299;35.160;26.100;2023-04-15T07:45:19;21.02;;;6.55;;
56401;SDS011;42299;35.160;26.100;2023-04-15T07:46:42;18.55;;;5.40;;
56401;SDS011;42299;35.160;26.100;2023-04-15T07:48:04;16.52;;;6.15;;
56401;SDS011;42299;35.160;26.100;2023-04-15T07:49:27;20.60;;;6.97;;
56401;SDS011;42299;35.160;26.100;2023-04-15T07:50:50;19.58;;;6.38;;
56401;SDS011;42299;35.160;26.100;2023-04-15T07:52:12;23.30;;;5.90;;
56401;SDS011;42299;35.160;26.100;2023-04-15T07:53:35;14.23;;;4.55;;
56401;SDS011;42299;35.160;26.100;2023-04-15T07:54:57;17.67;;;5.20;;
56401;SDS011;42299;35.160;26.100;2023-04-15T07:56:20;10.18;;;3.90;;
56401;SDS011;42299;35.160;26.100;2023-04-15T07:57:42;16.88;;;6.63;;
56401;SDS011;42299;35.160;26.100;2023-04-15T07:59:06;18.00;;;6.28;;
56401;SDS011;42299;35.160;26.100;2023-04-15T08:00:32;15.38;;;6.18;;
56401;SDS011;42299;35.160;26.100;2023-04-15T08:01:55;15.00;;;5.15;;
56401;SDS011;42299;35.160;26.100;2023-04-15T08:03:18;23.38;;;6.47;;
56401;SDS011;42299;35.160;26.100;2023-04-15T08:04:42;18.65;;;5.63;;
56401;SDS011;42299;35.160;26.100;2023-04-15T08:06:04;13.43;;;4.82;;
56401;SDS011;42299;35.160;26.100;2023-04-15T08:07:27;19.05;;;5.22;;